sensor_id;sensor_type;location;lat;lon;timestamp;temperature;humidity
5210;DHT22;2624;48.048;11.706;2023-11-21T00:03:28;7.00;99.90
5210;DHT22;2624;48.048;11.706;2023-11-21T00:08:30;7.40;99.90
5210;DHT22;2624;48.048;11.706;2023-11-21T00:13:33;7.20;99.90
5210;DHT22;2624;48.048;11.706;2023-11-21T00:18:35;7.30;99.90
5210;DHT22;2624;48.048;11.706;2023-11-21T00:23:37;7.20;99.90
5210;DHT22;2624;48.048;11.706;2023-11-21T00:28:40;7.50;99.90
5210;DHT22;2624;48.048;11.706;2023-11-21T00:33:42;7.50;99.90
5210;DHT22;2624;48.048;11.706;2023-11-21T00:38:44;7.50;99.90
5210;DHT22;2624;48.048;11.706;2023-11-21T00:43:47;7.40;99.90
5210;DHT22;2624;48.048;11.706;2023-11-21T00:48:49;7.20;99.90
5210;DHT22;2624;48.048;11.706;2023-11-21T00:53:51;6.90;99.90
5210;DHT22;2624;48.048;11.706;2023-11-21T00:58:54;6.70;99.90
5210;DHT22;2624;48.048;11.706;2023-11-21T01:03:55;6.60;99.90
5210;DHT22;2624;48.048;11.706;2023-11-21T01:08:57;6.80;99.90
5210;DHT22;2624;48.048;11.706;2023-11-21T01:14:00;6.70;99.90
5210;DHT22;2624;48.048;11.706;2023-11-21T01:19:03;6.60;99.90
5210;DHT22;2624;48.048;11.706;2023-11-21T01:24:06;6.90;99.90
5210;DHT22;2624;48.048;11.706;2023-11-21T01:29:10;7.00;99.90
5210;DHT22;2624;48.048;11.706;2023-11-21T01:34:12;6.30;99.90
5210;DHT22;2624;48.048;11.706;2023-11-21T01:39:15;6.10;99.90
5210;DHT22;2624;48.048;11.706;2023-11-21T01:44:25;6.20;99.90
5210;DHT22;2624;48.048;11.706;2023-11-21T01:49:27;6.20;99.90
5210;DHT22;2624;48.048;11.706;2023-11-21T01:54:29;6.20;99.90
5210;DHT22;2624;48.048;11.706;2023-11-21T01:59:34;6.10;99.90
5210;DHT22;2624;48.048;11.706;2023-11-21T02:04:37;6.10;99.90
5210;DHT22;2624;48.048;11.706;2023-11-21T02:09:39;6.10;99.90
5210;DHT22;2624;48.048;11.706;2023-11-21T02:14:44;6.10;99.90
5210;DHT22;2624;48.048;11.706;2023-11-21T02:19:46;6.30;99.90
5210;DHT22;2624;48.048;11.706;2023-11-21T02:24:53;6.70;99.90
5210;DHT22;2624;48.048;11.706;2023-11-21T02:29:54;6.50;99.90
5210;DHT22;2624;48.048;11.706;2023-11-21T02:34:56;6.90;99.90
5210;DHT22;2624;48.048;11.706;2023-11-21T02:40:03;6.90;99.90
5210;DHT22;2624;48.048;11.706;2023-11-21T02:45:07;6.80;99.90
5210;DHT22;2624;48.048;11.706;2023-11-21T02:50:09;7.00;99.90
5210;DHT22;2624;48.048;11.706;2023-11-21T02:55:13;7.10;99.90
5210;DHT22;2624;48.048;11.706;2023-11-21T03:00:15;7.00;99.90
5210;DHT22;2624;48.048;11.706;2023-11-21T03:05:17;7.00;99.90
5210;DHT22;2624;48.048;11.706;2023-11-21T03:10:20;7.10;99.90
5210;DHT22;2624;48.048;11.706;2023-11-21T03:15:22;7.10;99.90
5210;DHT22;2624;48.048;11.706;2023-11-21T03:20:23;6.90;99.90
5210;DHT22;2624;48.048;11.706;2023-11-21T03:25:27;6.80;99.90
5210;DHT22;2624;48.048;11.706;2023-11-21T03:30:29;6.80;99.90
5210;DHT22;2624;48.048;11.706;2023-11-21T03:35:31;6.80;99.90
5210;DHT22;2624;48.048;11.706;2023-11-21T03:40:34;6.80;99.90
5210;DHT22;2624;48.048;11.706;2023-11-21T03:45:36;6.60;99.90
5210;DHT22;2624;48.048;11.706;2023-11-21T03:50:38;6.60;99.90
5210;DHT22;2624;48.048;11.706;2023-11-21T03:55:41;6.70;99.90
5210;DHT22;2624;48.048;11.706;2023-11-21T04:00:43;6.60;99.90
5210;DHT22;2624;48.048;11.706;2023-11-21T04:05:45;6.80;99.90
5210;DHT22;2624;48.048;11.706;2023-11-21T04:10:49;6.80;99.90
5210;DHT22;2624;48.048;11.706;2023-11-21T04:15:50;6.90;99.90
5210;DHT22;2624;48.048;11.706;2023-11-21T04:20:52;6.70;99.90
5210;DHT22;2624;48.048;11.706;2023-11-21T04:25:56;6.70;99.90
5210;DHT22;2624;48.048;11.706;2023-11-21T04:30:57;6.60;99.90
5210;DHT22;2624;48.048;11.706;2023-11-21T04:35:59;6.50;99.90
5210;DHT22;2624;48.048;11.706;2023-11-21T04:41:02;6.70;99.90
5210;DHT22;2624;48.048;11.706;2023-11-21T04:46:04;6.80;99.90
5210;DHT22;2624;48.048;11.706;2023-11-21T04:51:07;6.90;99.90
5210;DHT22;2624;48.048;11.706;2023-11-21T04:56:10;6.90;99.90
5210;DHT22;2624;48.048;11.706;2023-11-21T05:01:12;6.90;99.90
5210;DHT22;2624;48.048;11.706;2023-11-21T05:06:14;6.90;99.90
5210;DHT22;2624;48.048;11.706;2023-11-21T05:11:24;6.80;99.90
5210;DHT22;2624;48.048;11.706;2023-11-21T05:16:26;6.70;99.90
5210;DHT22;2624;48.048;11.706;2023-11-21T05:21:29;6.60;99.90
5210;DHT22;2624;48.048;11.706;2023-11-21T05:26:33;6.60;99.90
5210;DHT22;2624;48.048;11.706;2023-11-21T05:31:34;6.60;99.90
5210;DHT22;2624;48.048;11.706;2023-11-21T05:36:36;6.60;99.90
5210;DHT22;2624;48.048;11.706;2023-11-21T05:41:39;6.80;99.90
5210;DHT22;2624;48.048;11.706;2023-11-21T05:46:41;6.80;99.90
5210;DHT22;2624;48.048;11.706;2023-11-21T05:51:43;6.80;99.90
5210;DHT22;2624;48.048;11.706;2023-11-21T05:56:47;6.80;99.90
5210;DHT22;2624;48.048;11.706;2023-11-21T06:01:49;6.80;99.90
5210;DHT22;2624;48.048;11.706;2023-11-21T06:06:51;6.60;99.90
5210;DHT22;2624;48.048;11.706;2023-11-21T06:11:55;6.60;99.90
5210;DHT22;2624;48.048;11.706;2023-11-21T06:16:56;6.50;99.90
5210;DHT22;2624;48.048;11.706;2023-11-21T06:21:58;6.60;99.90
5210;DHT22;2624;48.048;11.706;2023-11-21T06:27:05;6.60;99.90
5210;DHT22;2624;48.048;11.706;2023-11-21T06:32:07;6.60;99.90
5210;DHT22;2624;48.048;11.706;2023-11-21T06:37:09;6.60;99.90
5210;DHT22;2624;48.048;11.706;2023-11-21T06:42:13;6.60;99.90
5210;DHT22;2624;48.048;11.706;2023-11-21T06:47:15;6.50;99.90
5210;DHT22;2624;48.048;11.706;2023-11-21T06:52:17;6.60;99.90
5210;DHT22;2624;48.048;11.706;2023-11-21T06:57:23;6.50;99.90
5210;DHT22;2624;48.048;11.706;2023-11-21T07:02:24;6.50;99.90
5210;DHT22;2624;48.048;11.706;2023-11-21T07:07:27;6.60;99.90
5210;DHT22;2624;48.048;11.706;2023-11-21T07:12:30;6.60;99.90
5210;DHT22;2624;48.048;11.706;2023-11-21T07:17:32;6.60;99.90
5210;DHT22;2624;48.048;11.706;2023-11-21T07:22:35;6.60;99.90
5210;DHT22;2624;48.048;11.706;2023-11-21T07:27:38;6.60;99.90
5210;DHT22;2624;48.048;11.706;2023-11-21T07:32:40;6.50;99.90
5210;DHT22;2624;48.048;11.706;2023-11-21T07:37:42;6.60;99.90
5210;DHT22;2624;48.048;11.706;2023-11-21T07:42:45;6.60;99.90
5210;DHT22;2624;48.048;11.706;2023-11-21T07:47:47;6.60;99.90
5210;DHT22;2624;48.048;11.706;2023-11-21T07:52:49;6.60;99.90
5210;DHT22;2624;48.048;11.706;2023-11-21T07:57:52;6.60;99.90
5210;DHT22;2624;48.048;11.706;2023-11-21T08:02:54;6.50;99.90
5210;DHT22;2624;48.048;11.706;2023-11-21T08:07:55;6.70;99.90
5210;DHT22;2624;48.048;11.706;2023-11-21T08:12:59;6.70;99.90
5210;DHT22;2624;48.048;11.706;2023-11-21T08:18:00;6.70;99.90
5210;DHT22;2624;48.048;11.706;2023-11-21T08:23:02;6.70;99.90
5210;DHT22;2624;48.048;11.706;2023-11-21T08:28:07;6.60;99.90
5210;DHT22;2624;48.048;11.706;2023-11-21T08:33:10;6.70;99.90
5210;DHT22;2624;48.048;11.706;2023-11-21T08:38:12;6.70;99.90
5210;DHT22;2624;48.048;11.706;2023-11-21T08:43:15;6.70;99.90
5210;DHT22;2624;48.048;11.706;2023-11-21T08:48:20;6.80;99.90
5210;DHT22;2624;48.048;11.706;2023-11-21T08:53:22;6.80;99.90
5210;DHT22;2624;48.048;11.706;2023-11-21T08:58:25;6.90;99.90
5210;DHT22;2624;48.048;11.706;2023-11-21T09:03:26;6.90;99.90
5210;DHT22;2624;48.048;11.706;2023-11-21T09:08:29;6.90;99.90
5210;DHT22;2624;48.048;11.706;2023-11-21T09:13:32;6.90;99.90
5210;DHT22;2624;48.048;11.706;2023-11-21T09:18:33;6.90;99.90
5210;DHT22;2624;48.048;11.706;2023-11-21T09:23:36;6.90;99.90
5210;DHT22;2624;48.048;11.706;2023-11-21T09:28:39;7.00;99.90
5210;DHT22;2624;48.048;11.706;2023-11-21T09:33:43;6.90;99.90
5210;DHT22;2624;48.048;11.706;2023-11-21T09:38:45;6.90;99.90
5210;DHT22;2624;48.048;11.706;2023-11-21T09:43:49;7.00;99.90
5210;DHT22;2624;48.048;11.706;2023-11-21T09:48:54;7.00;99.90
5210;DHT22;2624;48.048;11.706;2023-11-21T09:53:59;7.00;99.90
5210;DHT22;2624;48.048;11.706;2023-11-21T09:59:03;7.10;99.90
5210;DHT22;2624;48.048;11.706;2023-11-21T10:04:09;7.00;99.90
5210;DHT22;2624;48.048;11.706;2023-11-21T10:09:12;7.00;99.90
5210;DHT22;2624;48.048;11.706;2023-11-21T10:14:19;7.10;99.90
5210;DHT22;2624;48.048;11.706;2023-11-21T10:19:23;7.00;99.90
5210;DHT22;2624;48.048;11.706;2023-11-21T10:24:25;7.10;99.90
5210;DHT22;2624;48.048;11.706;2023-11-21T10:29:30;7.10;99.90
5210;DHT22;2624;48.048;11.706;2023-11-21T10:34:36;7.20;99.90
5210;DHT22;2624;48.048;11.706;2023-11-21T10:39:39;7.20;99.90
5210;DHT22;2624;48.048;11.706;2023-11-21T10:44:43;7.20;99.90
5210;DHT22;2624;48.048;11.706;2023-11-21T10:49:48;7.20;99.90
5210;DHT22;2624;48.048;11.706;2023-11-21T10:54:50;7.20;99.90
5210;DHT22;2624;48.048;11.706;2023-11-21T10:59:54;7.20;99.90
5210;DHT22;2624;48.048;11.706;2023-11-21T11:04:57;7.30;99.90
5210;DHT22;2624;48.048;11.706;2023-11-21T11:09:59;7.30;99.90
5210;DHT22;2624;48.048;11.706;2023-11-21T11:15:03;7.30;99.90
5210;DHT22;2624;48.048;11.706;2023-11-21T11:20:06;7.40;99.90
5210;DHT22;2624;48.048;11.706;2023-11-21T11:25:25;7.40;99.90
5210;DHT22;2624;48.048;11.706;2023-11-21T11:30:41;7.40;99.90
5210;DHT22;2624;48.048;11.706;2023-11-21T11:35:52;7.40;99.90
5210;DHT22;2624;48.048;11.706;2023-11-21T11:40:55;7.50;99.90
5210;DHT22;2624;48.048;11.706;2023-11-21T11:45:59;7.40;99.90
5210;DHT22;2624;48.048;11.706;2023-11-21T11:51:05;7.40;99.90
5210;DHT22;2624;48.048;11.706;2023-11-21T11:56:28;7.40;99.90
5210;DHT22;2624;48.048;11.706;2023-11-21T12:01:33;7.50;99.90
5210;DHT22;2624;48.048;11.706;2023-11-21T12:06:35;7.50;99.90
5210;DHT22;2624;48.048;11.706;2023-11-21T12:11:37;7.60;99.90
5210;DHT22;2624;48.048;11.706;2023-11-21T12:16:40;7.60;99.90
5210;DHT22;2624;48.048;11.706;2023-11-21T12:21:43;7.60;99.90
5210;DHT22;2624;48.048;11.706;2023-11-21T12:26:45;7.60;99.90
5210;DHT22;2624;48.048;11.706;2023-11-21T12:31:50;7.60;99.90
5210;DHT22;2624;48.048;11.706;2023-11-21T12:36:51;7.60;99.90
5210;DHT22;2624;48.048;11.706;2023-11-21T12:41:55;7.60;99.90
5210;DHT22;2624;48.048;11.706;2023-11-21T12:46:59;7.60;99.90
5210;DHT22;2624;48.048;11.706;2023-11-21T12:52:01;7.60;99.90
5210;DHT22;2624;48.048;11.706;2023-11-21T12:57:04;7.60;99.90
5210;DHT22;2624;48.048;11.706;2023-11-21T13:02:12;7.70;99.90
5210;DHT22;2624;48.048;11.706;2023-11-21T13:07:16;7.70;99.90
5210;DHT22;2624;48.048;11.706;2023-11-21T13:12:20;7.70;99.90
5210;DHT22;2624;48.048;11.706;2023-11-21T13:17:26;7.70;99.90
5210;DHT22;2624;48.048;11.706;2023-11-21T13:22:28;7.70;99.90
5210;DHT22;2624;48.048;11.706;2023-11-21T13:27:31;7.70;99.90
5210;DHT22;2624;48.048;11.706;2023-11-21T13:32:36;7.80;99.90
5210;DHT22;2624;48.048;11.706;2023-11-21T13:37:38;7.80;99.90
5210;DHT22;2624;48.048;11.706;2023-11-21T13:42:40;7.80;99.90
5210;DHT22;2624;48.048;11.706;2023-11-21T13:47:43;7.80;99.90
5210;DHT22;2624;48.048;11.706;2023-11-21T13:52:46;7.70;99.90
5210;DHT22;2624;48.048;11.706;2023-11-21T13:57:47;7.70;99.90
5210;DHT22;2624;48.048;11.706;2023-11-21T14:02:53;7.70;99.90
5210;DHT22;2624;48.048;11.706;2023-11-21T14:07:57;7.60;99.90
5210;DHT22;2624;48.048;11.706;2023-11-21T14:13:03;7.60;99.90
5210;DHT22;2624;48.048;11.706;2023-11-21T14:18:07;7.60;99.90
5210;DHT22;2624;48.048;11.706;2023-11-21T14:23:11;7.60;99.90
5210;DHT22;2624;48.048;11.706;2023-11-21T14:28:12;7.70;99.90
5210;DHT22;2624;48.048;11.706;2023-11-21T14:33:16;7.60;99.90
5210;DHT22;2624;48.048;11.706;2023-11-21T14:38:18;7.60;99.90
5210;DHT22;2624;48.048;11.706;2023-11-21T14:43:20;7.60;99.90
5210;DHT22;2624;48.048;11.706;2023-11-21T14:48:23;7.60;99.90
5210;DHT22;2624;48.048;11.706;2023-11-21T14:53:42;7.60;99.90
5210;DHT22;2624;48.048;11.706;2023-11-21T14:58:54;7.60;99.90
5210;DHT22;2624;48.048;11.706;2023-11-21T15:03:58;7.60;99.90
5210;DHT22;2624;48.048;11.706;2023-11-21T15:09:00;7.60;99.90
5210;DHT22;2624;48.048;11.706;2023-11-21T15:14:19;7.50;99.90
5210;DHT22;2624;48.048;11.706;2023-11-21T15:19:27;7.50;99.90
5210;DHT22;2624;48.048;11.706;2023-11-21T15:24:29;7.50;99.90
5210;DHT22;2624;48.048;11.706;2023-11-21T15:29:31;7.50;99.90
5210;DHT22;2624;48.048;11.706;2023-11-21T15:34:34;7.40;99.90
5210;DHT22;2624;48.048;11.706;2023-11-21T15:39:36;7.30;99.90
5210;DHT22;2624;48.048;11.706;2023-11-21T15:44:38;7.10;99.90
5210;DHT22;2624;48.048;11.706;2023-11-21T15:49:42;7.00;99.90
5210;DHT22;2624;48.048;11.706;2023-11-21T15:54:44;7.00;99.90
5210;DHT22;2624;48.048;11.706;2023-11-21T15:59:46;7.00;99.90
5210;DHT22;2624;48.048;11.706;2023-11-21T16:04:49;7.30;99.90
5210;DHT22;2624;48.048;11.706;2023-11-21T16:09:51;7.30;99.90
5210;DHT22;2624;48.048;11.706;2023-11-21T16:14:53;7.30;99.90
5210;DHT22;2624;48.048;11.706;2023-11-21T16:19:56;7.10;99.90
5210;DHT22;2624;48.048;11.706;2023-11-21T16:24:57;7.30;99.90
5210;DHT22;2624;48.048;11.706;2023-11-21T16:30:00;7.40;99.90
5210;DHT22;2624;48.048;11.706;2023-11-21T16:35:06;7.30;99.90
5210;DHT22;2624;48.048;11.706;2023-11-21T16:40:10;7.30;99.90
5210;DHT22;2624;48.048;11.706;2023-11-21T16:45:12;7.10;99.90
5210;DHT22;2624;48.048;11.706;2023-11-21T16:50:15;7.20;99.90
5210;DHT22;2624;48.048;11.706;2023-11-21T16:55:17;7.30;99.90
5210;DHT22;2624;48.048;11.706;2023-11-21T17:00:19;7.30;99.90
5210;DHT22;2624;48.048;11.706;2023-11-21T17:05:24;7.30;99.90
5210;DHT22;2624;48.048;11.706;2023-11-21T17:10:26;7.30;99.90
5210;DHT22;2624;48.048;11.706;2023-11-21T17:15:27;7.30;99.90
5210;DHT22;2624;48.048;11.706;2023-11-21T17:20:31;7.10;99.90
5210;DHT22;2624;48.048;11.706;2023-11-21T17:25:32;7.00;99.90
5210;DHT22;2624;48.048;11.706;2023-11-21T17:30:34;7.10;99.90
5210;DHT22;2624;48.048;11.706;2023-11-21T17:35:39;7.10;99.90
5210;DHT22;2624;48.048;11.706;2023-11-21T17:40:42;6.90;99.90
5210;DHT22;2624;48.048;11.706;2023-11-21T17:45:45;7.10;99.90
5210;DHT22;2624;48.048;11.706;2023-11-21T17:50:48;7.20;99.90
5210;DHT22;2624;48.048;11.706;2023-11-21T17:55:50;7.20;99.90
5210;DHT22;2624;48.048;11.706;2023-11-21T18:00:52;7.20;99.90
5210;DHT22;2624;48.048;11.706;2023-11-21T18:05:55;7.20;99.90
5210;DHT22;2624;48.048;11.706;2023-11-21T18:10:57;7.20;99.90
5210;DHT22;2624;48.048;11.706;2023-11-21T18:16:00;7.20;99.90
5210;DHT22;2624;48.048;11.706;2023-11-21T18:21:03;7.10;99.90
5210;DHT22;2624;48.048;11.706;2023-11-21T18:26:04;7.20;99.90
5210;DHT22;2624;48.048;11.706;2023-11-21T18:31:06;7.10;99.90
5210;DHT22;2624;48.048;11.706;2023-11-21T18:36:09;7.20;99.90
5210;DHT22;2624;48.048;11.706;2023-11-21T18:41:11;7.20;99.90
5210;DHT22;2624;48.048;11.706;2023-11-21T18:46:13;7.20;99.90
5210;DHT22;2624;48.048;11.706;2023-11-21T18:51:16;7.20;99.90
5210;DHT22;2624;48.048;11.706;2023-11-21T18:56:21;7.20;99.90
5210;DHT22;2624;48.048;11.706;2023-11-21T19:01:25;7.20;99.90
5210;DHT22;2624;48.048;11.706;2023-11-21T19:06:29;7.20;99.90
5210;DHT22;2624;48.048;11.706;2023-11-21T19:11:30;7.20;99.90
5210;DHT22;2624;48.048;11.706;2023-11-21T19:16:32;7.20;99.90
5210;DHT22;2624;48.048;11.706;2023-11-21T19:21:35;7.10;99.90
5210;DHT22;2624;48.048;11.706;2023-11-21T19:26:37;7.20;99.90
5210;DHT22;2624;48.048;11.706;2023-11-21T19:31:39;7.20;99.90
5210;DHT22;2624;48.048;11.706;2023-11-21T19:36:42;7.20;99.90
5210;DHT22;2624;48.048;11.706;2023-11-21T19:41:44;7.20;99.90
5210;DHT22;2624;48.048;11.706;2023-11-21T19:46:46;7.20;99.90
5210;DHT22;2624;48.048;11.706;2023-11-21T19:51:50;7.20;99.90
5210;DHT22;2624;48.048;11.706;2023-11-21T19:56:51;7.20;99.90
5210;DHT22;2624;48.048;11.706;2023-11-21T20:01:53;7.20;99.90
5210;DHT22;2624;48.048;11.706;2023-11-21T20:06:57;7.20;99.90
5210;DHT22;2624;48.048;11.706;2023-11-21T20:11:59;7.20;99.90
5210;DHT22;2624;48.048;11.706;2023-11-21T20:17:03;7.10;99.90
5210;DHT22;2624;48.048;11.706;2023-11-21T20:22:06;7.10;99.90
5210;DHT22;2624;48.048;11.706;2023-11-21T20:27:08;7.10;99.90
5210;DHT22;2624;48.048;11.706;2023-11-21T20:32:10;7.20;99.90
5210;DHT22;2624;48.048;11.706;2023-11-21T20:37:13;7.10;99.90
5210;DHT22;2624;48.048;11.706;2023-11-21T20:42:15;7.10;99.90
5210;DHT22;2624;48.048;11.706;2023-11-21T20:47:17;7.10;99.90
5210;DHT22;2624;48.048;11.706;2023-11-21T20:52:20;7.10;99.90
5210;DHT22;2624;48.048;11.706;2023-11-21T20:57:22;7.10;99.90
5210;DHT22;2624;48.048;11.706;2023-11-21T21:02:24;7.10;99.90
5210;DHT22;2624;48.048;11.706;2023-11-21T21:07:28;7.10;99.90
5210;DHT22;2624;48.048;11.706;2023-11-21T21:12:30;7.10;99.90
5210;DHT22;2624;48.048;11.706;2023-11-21T21:17:31;7.10;99.90
5210;DHT22;2624;48.048;11.706;2023-11-21T21:22:35;7.10;99.90
5210;DHT22;2624;48.048;11.706;2023-11-21T21:27:36;7.10;99.90
5210;DHT22;2624;48.048;11.706;2023-11-21T21:32:38;7.10;99.90
5210;DHT22;2624;48.048;11.706;2023-11-21T21:37:41;7.10;99.90
5210;DHT22;2624;48.048;11.706;2023-11-21T21:42:44;7.10;99.90
5210;DHT22;2624;48.048;11.706;2023-11-21T21:47:47;7.10;99.90
5210;DHT22;2624;48.048;11.706;2023-11-21T21:52:50;7.10;99.90
5210;DHT22;2624;48.048;11.706;2023-11-21T21:57:53;7.10;99.90
5210;DHT22;2624;48.048;11.706;2023-11-21T22:02:55;7.10;99.90
5210;DHT22;2624;48.048;11.706;2023-11-21T22:07:58;7.10;99.90
5210;DHT22;2624;48.048;11.706;2023-11-21T22:13:00;7.10;99.90
5210;DHT22;2624;48.048;11.706;2023-11-21T22:18:01;7.10;99.90
5210;DHT22;2624;48.048;11.706;2023-11-21T22:23:05;7.10;99.90
5210;DHT22;2624;48.048;11.706;2023-11-21T22:28:06;7.00;99.90
5210;DHT22;2624;48.048;11.706;2023-11-21T22:33:08;7.10;99.90
5210;DHT22;2624;48.048;11.706;2023-11-21T22:38:11;7.00;99.90
5210;DHT22;2624;48.048;11.706;2023-11-21T22:43:15;7.00;99.90
5210;DHT22;2624;48.048;11.706;2023-11-21T22:48:17;7.00;99.90
5210;DHT22;2624;48.048;11.706;2023-11-21T22:53:20;7.00;99.90
5210;DHT22;2624;48.048;11.706;2023-11-21T22:58:22;7.00;99.90
5210;DHT22;2624;48.048;11.706;2023-11-21T23:03:24;7.00;99.90
5210;DHT22;2624;48.048;11.706;2023-11-21T23:08:27;7.00;99.90
5210;DHT22;2624;48.048;11.706;2023-11-21T23:13:30;7.10;99.90
5210;DHT22;2624;48.048;11.706;2023-11-21T23:18:32;7.00;99.90
5210;DHT22;2624;48.048;11.706;2023-11-21T23:23:35;7.00;99.90
5210;DHT22;2624;48.048;11.706;2023-11-21T23:28:37;7.00;99.90
5210;DHT22;2624;48.048;11.706;2023-11-21T23:33:38;7.00;99.90
5210;DHT22;2624;48.048;11.706;2023-11-21T23:38:41;7.00;99.90
5210;DHT22;2624;48.048;11.706;2023-11-21T23:43:44;7.00;99.90
5210;DHT22;2624;48.048;11.706;2023-11-21T23:48:45;7.00;99.90
5210;DHT22;2624;48.048;11.706;2023-11-21T23:53:49;7.00;99.90
5210;DHT22;2624;48.048;11.706;2023-11-21T23:58:50;6.90;99.90
